Time;durP1;ratioP1;P1;durP2;ratioP2;P2;SDS_P1;SDS_P2;PMS_P1;PMS_P2;Temp;Humidity;BMP_temperature;BMP_pressure;BME280_temperature;BME280_humidity;BME280_pressure;Samples;Min_cycle;Max_cycle;Signal;HPM_P1;HPM_P2
2022/09/20 00:01:07;;;;;;;8.52;2.65;;;10.20;99.90;;;;;;5035507;28;20053;-76
2022/09/20 00:03:34;;;;;;;6.38;2.00;;;10.10;99.90;;;;;;5034396;28;20052;-77
2022/09/20 00:06:01;;;;;;;3.83;1.85;;;10.10;99.90;;;;;;5035791;28;20151;-76
2022/09/20 00:08:27;;;;;;;10.65;2.45;;;10.10;99.90;;;;;;5035173;28;20095;-77
2022/09/20 00:11:23;;;;;;;3.88;1.70;;;10.10;99.90;;;;;;5037779;28;20072;-75
2022/09/20 00:13:51;;;;;;;5.75;1.83;;;9.90;99.90;;;;;;5035778;28;20045;-76
2022/09/20 00:16:26;;;;;;;4.60;1.75;;;10.00;99.90;;;;;;5035722;28;20501;-76
2022/09/20 00:18:54;;;;;;;7.05;2.15;;;9.90;99.90;;;;;;5036187;28;20060;-76
2022/09/20 00:21:22;;;;;;;3.90;1.90;;;9.90;99.90;;;;;;5035464;28;20080;-76
2022/09/20 00:23:47;;;;;;;5.57;1.73;;;9.90;99.90;;;;;;5035266;28;20053;-75
2022/09/20 00:26:13;;;;;;;5.22;1.70;;;9.80;99.90;;;;;;5032574;28;20045;-75
2022/09/20 00:28:40;;;;;;;6.05;2.22;;;9.80;99.90;;;;;;5036681;28;20044;-76
2022/09/20 00:31:06;;;;;;;4.53;2.03;;;9.70;99.90;;;;;;5034050;28;20302;-76
2022/09/20 00:36:17;;;;;;;9.07;2.33;;;9.70;99.90;;;;;;5035852;28;20053;-76
2022/09/20 00:38:42;;;;;;;4.25;2.53;;;9.70;99.90;;;;;;5035455;28;20053;-76
2022/09/20 00:41:08;;;;;;;9.27;2.55;;;9.70;99.90;;;;;;5033685;28;20056;-76
2022/09/20 00:43:45;;;;;;;4.55;2.00;;;9.70;99.90;;;;;;5035424;28;20049;-77
2022/09/20 00:46:35;;;;;;;5.82;1.63;;;9.60;99.90;;;;;;5034154;28;20041;-77
2022/09/20 00:49:13;;;;;;;5.20;1.80;;;9.60;99.90;;;;;;5033976;28;20106;-77
2022/09/20 00:51:44;;;;;;;7.20;1.73;;;9.60;99.90;;;;;;5035908;28;20049;-77
2022/09/20 00:54:14;;;;;;;3.92;1.77;;;9.50;99.90;;;;;;5035527;28;20055;-76
2022/09/20 00:56:42;;;;;;;5.50;3.53;;;9.60;99.90;;;;;;5036386;28;20049;-76
2022/09/20 00:59:29;;;;;;;8.35;1.85;;;9.50;99.90;;;;;;5034802;28;20045;-76
2022/09/20 01:02:05;;;;;;;6.97;1.63;;;9.50;99.90;;;;;;5043080;28;20492;-77
2022/09/20 01:04:33;;;;;;;4.82;1.75;;;9.50;99.90;;;;;;5035818;28;20335;-76
2022/09/20 01:07:02;;;;;;;5.00;1.38;;;9.50;99.90;;;;;;5037082;28;20107;-78
2022/09/20 01:09:28;;;;;;;3.47;1.70;;;9.90;99.90;;;;;;5035411;28;20055;-77
2022/09/20 01:11:55;;;;;;;8.40;1.85;;;9.50;99.90;;;;;;5039338;28;20049;-76
2022/09/20 01:14:23;;;;;;;3.53;1.55;;;9.50;99.90;;;;;;5039574;28;20136;-76
2022/09/20 01:16:55;;;;;;;5.63;1.92;;;9.50;99.90;;;;;;5033382;28;21047;-76
2022/09/20 01:19:57;;;;;;;2.75;1.40;;;9.40;99.90;;;;;;5038592;28;20677;-77
2022/09/20 01:23:04;;;;;;;4.88;1.83;;;9.50;99.90;;;;;;5040774;28;20139;-76
2022/09/20 01:25:48;;;;;;;3.15;1.40;;;9.40;99.90;;;;;;5029904;28;20060;-77
2022/09/20 01:28:15;;;;;;;7.20;1.90;;;9.40;99.90;;;;;;5034572;28;20044;-76
2022/09/20 01:31:12;;;;;;;3.05;1.75;;;9.40;99.90;;;;;;5039457;28;20079;-77
2022/09/20 01:33:45;;;;;;;5.97;1.27;;;9.40;99.90;;;;;;5040666;28;20047;-77
2022/09/20 01:36:17;;;;;;;3.90;1.55;;;9.40;99.90;;;;;;5038896;28;20084;-76
2022/09/20 01:39:15;;;;;;;4.68;1.60;;;9.30;99.90;;;;;;5040030;28;20037;-77
2022/09/20 01:41:51;;;;;;;6.78;2.08;;;9.30;99.90;;;;;;5032392;28;20052;-76
2022/09/20 01:44:35;;;;;;;4.05;1.83;;;9.50;99.90;;;;;;5038425;28;20571;-76
2022/09/20 01:47:21;;;;;;;4.65;2.70;;;9.30;99.90;;;;;;5039604;28;20485;-76
2022/09/20 01:50:01;;;;;;;2.45;1.40;;;9.30;99.90;;;;;;5018572;28;20065;-77
2022/09/20 01:52:55;;;;;;;6.07;2.00;;;9.20;99.90;;;;;;5029690;28;20060;-77
2022/09/20 01:55:21;;;;;;;;;;;9.20;99.90;;;;;;5040848;28;20057;-76
2022/09/20 01:57:52;;;;;;;3.50;1.42;;;9.10;99.90;;;;;;5040882;28;20201;-76
2022/09/20 02:00:29;;;;;;;2.97;1.40;;;9.10;99.90;;;;;;5039905;28;20122;-77
2022/09/20 02:03:32;;;;;;;4.28;2.00;;;9.10;99.90;;;;;;5033749;28;20075;-77
2022/09/20 02:06:21;;;;;;;3.75;1.60;;;9.10;99.90;;;;;;5036563;28;20049;-77
2022/09/20 02:09:39;;;;;;;3.90;1.60;;;9.10;99.90;;;;;;5039499;28;20795;-76
2022/09/20 02:12:20;;;;;;;2.47;1.50;;;9.00;99.90;;;;;;5008878;28;20056;-76
2022/09/20 02:15:10;;;;;;;6.72;1.63;;;9.00;99.90;;;;;;5036413;28;20508;-76
2022/09/20 02:17:54;;;;;;;6.07;1.80;;;9.00;99.90;;;;;;5039266;28;20119;-77
2022/09/20 02:20:41;;;;;;;6.38;1.85;;;9.00;99.90;;;;;;5030349;28;20587;-77
2022/09/20 02:23:21;;;;;;;4.60;2.00;;;9.00;99.90;;;;;;5041045;28;20053;-76
2022/09/20 02:26:10;;;;;;;3.97;1.52;;;9.00;99.90;;;;;;5034921;28;20169;-77
2022/09/20 02:28:51;;;;;;;4.20;2.13;;;8.90;99.90;;;;;;5032561;28;20088;-77
2022/09/20 02:31:49;;;;;;;7.55;1.73;;;8.80;99.90;;;;;;5040332;28;20551;-76
2022/09/20 02:34:23;;;;;;;3.50;1.52;;;8.80;99.90;;;;;;5036778;28;20379;-77
2022/09/20 02:37:08;;;;;;;5.20;1.67;;;8.80;99.90;;;;;;5039332;28;20567;-76
2022/09/20 02:39:50;;;;;;;3.17;1.27;;;8.70;99.90;;;;;;5039250;28;20045;-77
2022/09/20 02:42:31;;;;;;;3.85;1.85;;;8.70;99.90;;;;;;5039863;28;20056;-77
2022/09/20 02:45:08;;;;;;;2.28;1.80;;;8.70;99.90;;;;;;5034722;28;20045;-76
2022/09/20 02:47:40;;;;;;;3.50;1.90;;;8.70;99.90;;;;;;5039070;28;20045;-77
2022/09/20 02:50:27;;;;;;;3.22;1.30;;;8.70;99.90;;;;;;5038421;28;20103;-77
2022/09/20 02:52:55;;;;;;;2.92;1.42;;;8.70;99.90;;;;;;5038996;28;20048;-77
2022/09/20 02:55:30;;;;;;;4.65;1.70;;;8.60;99.90;;;;;;5039774;28;20049;-76
2022/09/20 02:58:25;;;;;;;2.47;1.40;;;8.60;99.90;;;;;;5029176;28;20052;-76
2022/09/20 03:00:58;;;;;;;3.72;1.45;;;8.60;99.90;;;;;;5033550;28;20463;-77
2022/09/20 03:03:53;;;;;;;4.18;1.48;;;8.60;99.90;;;;;;5039121;28;20555;-77
2022/09/20 03:06:37;;;;;;;6.22;1.77;;;8.50;99.90;;;;;;5039666;28;20163;-76
2022/09/20 03:09:28;;;;;;;9.70;2.45;;;8.50;99.90;;;;;;5037651;28;20783;-77
2022/09/20 03:12:03;;;;;;;5.47;1.70;;;8.50;99.90;;;;;;5030516;28;20137;-77
2022/09/20 03:15:11;;;;;;;2.45;1.55;;;8.50;99.90;;;;;;5038568;28;20044;-77
2022/09/20 03:17:48;;;;;;;9.18;2.17;;;8.50;99.90;;;;;;5038726;28;20044;-77
2022/09/20 03:20:40;;;;;;;2.45;1.60;;;8.50;99.90;;;;;;5039477;28;20555;-77
2022/09/20 03:23:24;;;;;;;1.95;1.70;;;8.50;99.90;;;;;;5032912;28;20044;-77
2022/09/20 03:26:10;;;;;;;2.78;1.83;;;8.50;99.90;;;;;;5026301;28;20811;-77
2022/09/20 03:29:10;;;;;;;5.30;1.67;;;8.50;99.90;;;;;;5037284;28;20120;-77
2022/09/20 03:31:58;;;;;;;3.75;1.73;;;8.50;99.90;;;;;;5030068;28;20065;-77
2022/09/20 03:34:42;;;;;;;5.18;1.98;;;8.50;99.90;;;;;;5039082;28;20919;-77
2022/09/20 03:37:26;;;;;;;2.30;1.30;;;8.50;99.90;;;;;;5038715;28;20091;-77
2022/09/20 03:40:21;;;;;;;5.10;1.63;;;8.50;99.90;;;;;;5037295;28;20045;-77
2022/09/20 03:42:51;;;;;;;6.03;1.90;;;8.50;99.90;;;;;;5037791;28;20060;-77
2022/09/20 03:45:43;;;;;;;3.97;1.65;;;8.40;99.90;;;;;;5038157;28;20834;-76
2022/09/20 03:48:17;;;;;;;3.25;2.17;;;8.50;99.90;;;;;;5027364;28;20047;-77
2022/09/20 03:51:05;;;;;;;7.47;2.50;;;8.40;99.90;;;;;;5037128;28;20054;-78
2022/09/20 03:53:49;;;;;;;3.15;1.65;;;8.40;99.90;;;;;;5030238;28;20063;-77
2022/09/20 03:56:21;;;;;;;4.45;1.75;;;8.50;99.90;;;;;;5037627;28;20110;-76
2022/09/20 03:58:59;;;;;;;6.47;2.08;;;8.50;99.90;;;;;;5025615;28;20896;-76
2022/09/20 04:02:06;;;;;;;4.20;1.17;;;8.50;99.90;;;;;;5027831;28;20049;-77
2022/09/20 04:04:50;;;;;;;4.40;2.03;;;8.50;99.90;;;;;;5022233;28;20060;-78
2022/09/20 04:07:40;;;;;;;5.32;1.83;;;8.50;99.90;;;;;;5036069;28;20045;-76
2022/09/20 04:10:15;;;;;;;5.75;1.80;;;8.50;99.90;;;;;;5037332;28;20048;-76
2022/09/20 04:13:14;;;;;;;3.03;1.45;;;8.50;99.90;;;;;;5027831;28;20075;-76
2022/09/20 04:16:05;;;;;;;2.75;1.95;;;8.60;99.90;;;;;;5037701;28;20087;-76
2022/09/20 04:18:40;;;;;;;5.30;1.77;;;8.70;99.90;;;;;;5038198;28;20045;-77
2022/09/20 04:21:22;;;;;;;5.45;1.73;;;8.70;99.90;;;;;;5037151;28;20045;-76
2022/09/20 04:23:59;;;;;;;2.25;1.92;;;8.80;99.90;;;;;;5037569;28;20809;-77
2022/09/20 04:26:28;;;;;;;5.30;1.85;;;8.80;99.90;;;;;;5037262;28;20057;-78
2022/09/20 04:28:58;;;;;;;7.55;2.00;;;8.90;99.90;;;;;;5025452;28;20417;-77
2022/09/20 04:31:29;;;;;;;4.68;1.83;;;8.90;99.90;;;;;;5038035;28;20056;-76
2022/09/20 04:33:58;;;;;;;6.15;1.90;;;9.00;99.90;;;;;;5028710;28;20053;-77
2022/09/20 04:36:30;;;;;;;3.15;1.45;;;9.00;99.90;;;;;;5037129;28;20057;-77
2022/09/20 04:39:05;;;;;;;5.45;2.00;;;9.00;99.90;;;;;;5038025;28;20572;-76
2022/09/20 04:41:39;;;;;;;5.75;2.25;;;9.10;99.90;;;;;;5036589;28;20140;-77
2022/09/20 04:44:46;;;;;;;3.08;1.42;;;9.10;99.90;;;;;;5029106;28;20053;-77
2022/09/20 04:47:21;;;;;;;3.67;1.75;;;9.10;99.90;;;;;;5007895;28;20049;-76
2022/09/20 04:50:06;;;;;;;3.33;1.67;;;9.20;99.90;;;;;;5037588;28;20051;-77
2022/09/20 04:53:07;;;;;;;5.90;1.77;;;9.20;99.90;;;;;;5042775;28;20056;-78
2022/09/20 04:55:43;;;;;;;5.65;1.63;;;9.30;99.90;;;;;;5041020;28;20048;-77
2022/09/20 04:58:46;;;;;;;6.63;2.72;;;9.40;99.90;;;;;;5036499;28;20049;-77
2022/09/20 05:01:18;;;;;;;3.93;1.37;;;9.40;99.90;;;;;;5036623;28;20115;-77
2022/09/20 05:04:02;;;;;;;4.85;1.58;;;9.40;99.90;;;;;;5042310;28;20388;-77
2022/09/20 05:07:06;;;;;;;6.78;1.77;;;9.40;99.90;;;;;;5041361;28;20049;-78
2022/09/20 05:10:21;;;;;;;5.35;1.90;;;9.40;99.90;;;;;;5040313;28;20053;-78
2022/09/20 05:13:14;;;;;;;2.80;1.42;;;9.30;99.90;;;;;;5016865;28;20049;-77
2022/09/20 05:16:07;;;;;;;6.95;1.77;;;9.30;99.90;;;;;;5017507;28;20085;-77
2022/09/20 05:18:48;;;;;;;5.40;2.40;;;9.30;99.90;;;;;;5038867;28;20055;-78
2022/09/20 05:21:46;;;;;;;7.45;1.50;;;9.30;99.90;;;;;;5041254;28;20048;-77
2022/09/20 05:24:37;;;;;;;3.95;1.77;;;9.30;99.90;;;;;;5039951;28;20049;-78
2022/09/20 05:27:09;;;;;;;3.80;2.00;;;9.30;99.90;;;;;;5038740;28;20068;-78
2022/09/20 05:30:05;;;;;;;5.20;1.60;;;9.40;99.90;;;;;;5040763;28;20056;-77
2022/09/20 05:32:45;;;;;;;3.05;1.55;;;9.40;99.90;;;;;;5024051;28;20068;-77
2022/09/20 05:35:33;;;;;;;4.43;1.52;;;9.50;99.90;;;;;;5039835;28;20797;-77
2022/09/20 05:38:12;;;;;;;4.38;1.48;;;9.60;99.90;;;;;;5040015;28;21006;-77
2022/09/20 05:40:53;;;;;;;4.70;1.85;;;9.60;99.90;;;;;;5034001;28;20045;-77
2022/09/20 05:43:29;;;;;;;3.53;1.63;;;9.70;99.90;;;;;;5033416;28;20044;-78
2022/09/20 05:46:15;;;;;;;4.72;1.75;;;9.80;99.90;;;;;;5041987;28;20182;-77
2022/09/20 05:49:09;;;;;;;4.93;2.17;;;9.80;99.90;;;;;;5039239;28;20123;-77
2022/09/20 05:52:06;;;;;;;6.15;1.92;;;9.90;99.90;;;;;;5040916;28;20048;-77
2022/09/20 05:54:42;;;;;;;4.15;1.80;;;10.00;99.90;;;;;;5037810;28;20106;-77
2022/09/20 05:57:30;;;;;;;5.15;1.70;;;10.10;99.90;;;;;;5042050;28;20130;-78
2022/09/20 06:00:12;;;;;;;5.13;1.77;;;10.20;99.90;;;;;;5029410;28;20504;-77
2022/09/20 06:02:57;;;;;;;3.78;1.85;;;10.20;99.90;;;;;;5039924;28;20129;-77
2022/09/20 06:05:41;;;;;;;4.30;2.22;;;10.30;99.90;;;;;;5040009;28;20793;-77
2022/09/20 06:08:35;;;;;;;4.93;2.50;;;10.40;99.90;;;;;;5031528;28;20049;-77
2022/09/20 06:11:39;;;;;;;10.15;2.10;;;10.40;99.90;;;;;;5054291;28;20570;-77
2022/09/20 06:14:20;;;;;;;2.72;2.03;;;10.40;99.90;;;;;;5025887;28;20052;-77
2022/09/20 06:16:55;;;;;;;9.00;3.33;;;10.50;99.90;;;;;;5037634;28;20135;-77
2022/09/20 06:19:39;;;;;;;9.30;2.13;;;10.50;99.90;;;;;;5036484;28;20069;-78
2022/09/20 06:22:23;;;;;;;6.18;2.00;;;10.60;99.90;;;;;;5038566;28;20121;-77
2022/09/20 06:25:07;;;;;;;5.38;2.28;;;10.60;99.90;;;;;;5025238;28;20130;-78
2022/09/20 06:27:52;;;;;;;6.82;1.92;;;10.60;99.90;;;;;;5037991;28;20942;-77
2022/09/20 06:30:32;;;;;;;3.80;1.98;;;10.60;99.90;;;;;;5037230;28;20045;-78
2022/09/20 06:33:17;;;;;;;6.05;1.88;;;10.60;99.90;;;;;;5036861;28;20044;-78
2022/09/20 06:41:25;;;;;;;3.70;1.38;;;10.60;99.90;;;;;;5035684;28;20069;-76
2022/09/20 06:42:00;;;;;;;2.72;1.45;;;10.60;99.90;;;;;;5035667;28;20157;-76
2022/09/20 06:44:26;;;;;;;4.25;2.15;;;10.60;99.90;;;;;;5037316;28;20041;-76
2022/09/20 06:46:53;;;;;;;7.28;3.03;;;10.70;99.90;;;;;;5036895;28;20048;-77
2022/09/20 06:49:19;;;;;;;3.17;1.77;;;10.80;99.90;;;;;;5035966;28;20059;-75
2022/09/20 06:51:46;;;;;;;4.90;2.38;;;10.90;99.90;;;;;;5035625;28;20049;-74
2022/09/20 06:54:17;;;;;;;4.60;2.33;;;11.10;99.90;;;;;;5036196;28;20044;-74
2022/09/20 06:56:43;;;;;;;4.72;1.80;;;11.40;99.90;;;;;;5036874;28;20164;-74
2022/09/20 06:59:10;;;;;;;4.47;1.63;;;11.60;99.90;;;;;;5035070;28;20487;-74
2022/09/20 07:01:36;;;;;;;2.75;1.30;;;11.90;99.90;;;;;;5036851;28;20040;-82
2022/09/20 07:04:03;;;;;;;3.13;1.25;;;12.10;99.90;;;;;;5037014;28;20053;-78
2022/09/20 07:06:29;;;;;;;3.03;1.33;;;12.20;99.90;;;;;;5036856;28;20053;-80
2022/09/20 07:08:55;;;;;;;8.57;1.50;;;12.20;99.90;;;;;;5035846;28;20043;-76
2022/09/20 07:11:22;;;;;;;0.90;0.70;;;12.30;99.90;;;;;;5036559;28;20072;-76
2022/09/20 07:13:56;;;;;;;1.55;1.13;;;12.30;99.90;;;;;;5036605;28;20131;-74
2022/09/20 07:16:22;;;;;;;3.40;1.52;;;12.40;99.90;;;;;;5036915;28;20056;-74
2022/09/20 07:18:51;;;;;;;2.67;0.93;;;12.40;99.90;;;;;;5037139;28;20045;-74
2022/09/20 07:21:18;;;;;;;3.47;1.30;;;12.30;99.90;;;;;;5029107;28;20053;-74
2022/09/20 07:23:47;;;;;;;1.45;1.00;;;12.30;99.90;;;;;;5036305;28;20044;-74
2022/09/20 07:26:17;;;;;;;2.72;1.25;;;12.40;99.90;;;;;;5037142;28;20056;-74
2022/09/20 07:28:43;;;;;;;3.47;1.45;;;12.40;99.90;;;;;;5026762;28;20122;-74
2022/09/20 07:31:09;;;;;;;3.42;1.20;;;12.40;99.90;;;;;;5034310;28;20045;-74
2022/09/20 07:33:35;;;;;;;2.33;1.25;;;12.50;99.90;;;;;;5034434;28;20045;-75
2022/09/20 07:36:01;;;;;;;3.42;1.00;;;12.60;99.90;;;;;;5034908;28;20066;-75
2022/09/20 07:38:27;;;;;;;1.63;1.10;;;12.70;99.90;;;;;;5035606;28;20044;-74
2022/09/20 07:40:54;;;;;;;2.00;1.25;;;12.80;99.90;;;;;;5037597;28;20048;-77
2022/09/20 07:43:21;;;;;;;2.53;1.75;;;12.90;99.90;;;;;;5037568;28;20048;-76
2022/09/20 07:45:53;;;;;;;1.88;1.00;;;13.00;99.90;;;;;;5037955;28;20060;-74
2022/09/20 07:48:19;;;;;;;3.88;1.20;;;13.10;99.90;;;;;;5036165;28;20048;-74
2022/09/20 07:51:12;;;;;;;4.28;1.15;;;13.20;99.90;;;;;;5033978;28;20488;-76
2022/09/20 07:53:39;;;;;;;3.10;1.00;;;13.40;99.90;;;;;;5034930;28;20547;-74
2022/09/20 07:56:11;;;;;;;3.60;0.95;;;13.60;99.90;;;;;;5036360;28;20130;-74
2022/09/20 07:58:37;;;;;;;3.90;0.95;;;13.70;99.90;;;;;;5036712;28;20135;-81
2022/09/20 08:01:06;;;;;;;4.18;1.30;;;14.00;99.90;;;;;;5036467;28;20059;-80
2022/09/20 08:03:32;;;;;;;4.32;1.15;;;14.60;99.90;;;;;;5039111;28;20055;-81
2022/09/20 08:06:03;;;;;;;1.27;0.90;;;15.10;99.90;;;;;;5033745;28;20053;-82
2022/09/20 08:08:32;;;;;;;4.28;1.35;;;15.30;99.90;;;;;;5038894;28;20052;-79
2022/09/20 08:11:10;;;;;;;1.80;0.93;;;15.50;99.90;;;;;;5038817;28;20060;-79
2022/09/20 08:13:37;;;;;;;5.25;1.25;;;16.00;99.90;;;;;;5038637;28;20052;-81
2022/09/20 08:16:06;;;;;;;0.80;0.80;;;16.90;99.90;;;;;;5039188;28;20152;-80
2022/09/20 08:18:33;;;;;;;0.82;0.60;;;17.50;99.90;;;;;;5039060;28;20041;-79
2022/09/20 08:21:07;;;;;;;5.05;0.98;;;17.50;99.90;;;;;;5039753;28;20053;-80
2022/09/20 08:23:38;;;;;;;3.30;1.02;;;17.10;99.90;;;;;;5037957;28;20151;-82
2022/09/20 08:26:05;;;;;;;4.25;0.90;;;17.10;99.90;;;;;;5041239;28;20061;-81
2022/09/20 08:28:32;;;;;;;3.42;1.27;;;17.50;99.90;;;;;;5042309;28;20045;-84
2022/09/20 08:31:09;;;;;;;2.00;0.80;;;18.30;99.90;;;;;;5042425;28;20816;-82
2022/09/20 08:33:36;;;;;;;1.90;0.80;;;19.80;99.90;;;;;;5043171;28;20084;-80
2022/09/20 08:36:17;;;;;;;1.55;0.82;;;20.80;99.90;;;;;;5038499;28;20049;-80
2022/09/20 08:38:43;;;;;;;1.85;0.80;;;22.00;99.40;;;;;;5041950;28;20256;-81
2022/09/20 08:41:32;;;;;;;2.35;0.98;;;22.60;99.90;;;;;;5042428;28;20041;-82
2022/09/20 08:44:23;;;;;;;3.95;0.90;;;23.20;97.50;;;;;;5041758;28;20052;-81
2022/09/20 08:47:01;;;;;;;1.17;0.80;;;23.20;95.80;;;;;;5033654;28;20147;-81
2022/09/20 08:49:28;;;;;;;1.90;0.70;;;23.70;97.50;;;;;;5035502;28;20045;-81
2022/09/20 08:51:56;;;;;;;1.90;0.88;;;23.80;97.20;;;;;;5041028;28;20084;-83
2022/09/20 08:54:24;;;;;;;5.13;1.90;;;24.30;96.30;;;;;;5040443;28;20052;-81
2022/09/20 08:56:51;;;;;;;4.15;1.10;;;24.80;95.50;;;;;;5039079;28;20130;-81
2022/09/20 08:59:21;;;;;;;3.13;1.27;;;25.10;94.70;;;;;;5039487;28;20041;-82
2022/09/20 09:01:48;;;;;;;2.33;0.90;;;25.20;93.40;;;;;;5039932;28;20511;-81
2022/09/20 09:04:17;;;;;;;3.30;1.35;;;25.50;93.80;;;;;;5037381;28;20057;-82
2022/09/20 09:06:44;;;;;;;2.25;1.00;;;25.60;93.40;;;;;;5023595;28;20056;-84
2022/09/20 09:09:40;;;;;;;2.72;0.90;;;25.90;93.40;;;;;;5035986;28;20199;-83
2022/09/20 09:12:13;;;;;;;3.78;1.00;;;24.60;80.10;;;;;;5033864;28;20139;-84
2022/09/20 09:14:48;;;;;;;2.67;1.50;;;23.30;87.30;;;;;;5054477;28;20866;-82
2022/09/20 09:17:26;;;;;;;3.45;1.02;;;22.20;91.30;;;;;;5039432;28;20056;-77
2022/09/20 09:20:07;;;;;;;2.17;1.00;;;21.50;84.90;;;;;;5041053;28;20107;-79
2022/09/20 09:22:44;;;;;;;2.63;1.00;;;21.50;92.20;;;;;;5041172;28;20080;-80
2022/09/20 09:25:16;;;;;;;1.75;1.40;;;19.80;89.10;;;;;;5038340;28;20041;-76
2022/09/20 09:27:53;;;;;;;1.92;1.05;;;18.60;93.90;;;;;;5041200;28;20102;-78
2022/09/20 09:30:40;;;;;;;2.17;0.90;;;17.90;92.30;;;;;;5039984;28;20060;-84
2022/09/20 09:33:26;;;;;;;2.85;0.90;;;18.40;92.40;;;;;;5041805;28;20056;-77
2022/09/20 09:36:01;;;;;;;1.80;0.93;;;19.10;91.10;;;;;;5039035;28;20048;-78
2022/09/20 09:38:35;;;;;;;3.88;0.98;;;19.20;93.90;;;;;;5039472;28;20123;-77
2022/09/20 09:41:28;;;;;;;1.77;0.70;;;19.90;91.10;;;;;;5041086;28;20072;-76
2022/09/20 09:44:09;;;;;;;2.08;0.70;;;20.70;91.60;;;;;;5031429;28;20084;-77
2022/09/20 09:46:41;;;;;;;2.63;0.60;;;20.70;86.10;;;;;;5040358;28;20049;-77
2022/09/20 09:49:21;;;;;;;3.50;1.30;;;21.00;88.50;;;;;;5026130;28;20081;-77
2022/09/20 09:52:13;;;;;;;1.52;0.85;;;21.80;84.60;;;;;;5027657;28;20057;-77
2022/09/20 09:54:47;;;;;;;2.85;0.65;;;21.00;81.70;;;;;;5037732;28;20049;-77
2022/09/20 09:57:44;;;;;;;2.25;0.80;;;19.90;88.00;;;;;;5040867;28;20656;-78
2022/09/20 10:00:18;;;;;;;1.48;0.70;;;18.80;88.30;;;;;;5031980;28;20124;-78
2022/09/20 10:03:24;;;;;;;2.25;0.65;;;18.20;87.10;;;;;;5031718;28;20048;-77
2022/09/20 10:06:21;;;;;;;2.72;0.65;;;18.00;88.10;;;;;;5035865;28;20259;-78
2022/09/20 10:09:03;;;;;;;1.05;0.60;;;18.10;88.40;;;;;;5033840;28;20118;-77
2022/09/20 10:11:42;;;;;;;2.38;0.68;;;19.10;89.80;;;;;;5031116;28;20130;-76
2022/09/20 10:14:14;;;;;;;1.63;0.50;;;19.80;82.90;;;;;;5039049;28;20127;-78
2022/09/20 10:16:57;;;;;;;1.63;0.57;;;20.10;84.00;;;;;;5038909;28;20088;-84
2022/09/20 10:19:44;;;;;;;1.35;0.40;;;19.30;84.10;;;;;;5038139;28;20306;-78
2022/09/20 10:22:18;;;;;;;1.67;0.50;;;20.10;87.10;;;;;;5036950;28;20056;-81
2022/09/20 10:24:51;;;;;;;0.80;0.68;;;21.20;83.90;;;;;;5038079;28;20107;-81
2022/09/20 10:27:35;;;;;;;;;;;22.10;86.80;;;;;;5035450;28;20122;-80
2022/09/20 10:30:06;;;;;;;11.48;1.48;;;22.70;80.00;;;;;;5037450;28;19925;-77
2022/09/20 10:32:38;;;;;;;3.60;1.02;;;22.80;83.20;;;;;;5033224;28;20045;-78
2022/09/20 10:35:19;;;;;;;4.25;1.00;;;21.90;83.40;;;;;;5037917;28;20850;-77
2022/09/20 10:38:20;;;;;;;1.98;0.70;;;20.20;79.70;;;;;;5035346;28;20041;-78
2022/09/20 10:44:01;;;;;;;1.85;0.93;;;18.70;84.00;;;;;;5034787;28;20134;-78
2022/09/20 10:46:44;;;;;;;3.30;0.93;;;18.00;89.80;;;;;;5036549;28;20587;-75
2022/09/20 10:49:26;;;;;;;2.72;0.93;;;17.80;88.60;;;;;;5031813;28;20091;-78
2022/09/20 10:52:12;;;;;;;3.75;1.15;;;17.50;88.80;;;;;;5033481;28;20045;-80
2022/09/20 10:55:03;;;;;;;1.80;1.17;;;17.20;90.10;;;;;;5035482;28;20049;-78
2022/09/20 10:57:50;;;;;;;2.15;1.00;;;17.20;89.30;;;;;;5034404;28;20563;-78
2022/09/20 11:00:22;;;;;;;1.92;0.80;;;17.20;89.00;;;;;;5028947;28;20045;-78
2022/09/20 11:03:03;;;;;;;4.40;1.42;;;17.00;90.90;;;;;;5030898;28;20089;-79
2022/09/20 11:05:47;;;;;;;2.92;1.20;;;17.20;91.10;;;;;;5036768;28;20048;-79
2022/09/20 11:08:17;;;;;;;2.08;1.00;;;17.30;90.60;;;;;;5036579;28;20060;-81
2022/09/20 11:10:49;;;;;;;3.60;1.00;;;17.20;91.60;;;;;;5036107;28;20085;-79
2022/09/20 11:13:26;;;;;;;2.28;0.90;;;17.00;91.20;;;;;;5034873;28;20048;-78
2022/09/20 11:16:26;;;;;;;2.92;1.20;;;17.10;91.50;;;;;;5032980;28;20045;-83
2022/09/20 11:19:04;;;;;;;3.47;1.08;;;17.40;91.40;;;;;;5031765;28;20110;-85
2022/09/20 11:22:06;;;;;;;3.40;1.23;;;17.40;91.50;;;;;;5035283;28;20434;-81
2022/09/20 11:25:01;;;;;;;5.00;1.30;;;17.50;91.00;;;;;;5033841;28;20057;-80
2022/09/20 11:28:00;;;;;;;4.05;1.00;;;17.20;89.10;;;;;;5026267;28;20056;-79
2022/09/20 11:30:28;;;;;;;2.35;1.00;;;17.20;90.90;;;;;;5024983;28;20114;-79
2022/09/20 11:33:23;;;;;;;3.65;1.17;;;17.30;91.40;;;;;;5036152;28;20163;-80
2022/09/20 11:35:57;;;;;;;2.50;1.05;;;17.10;90.50;;;;;;5027208;28;20130;-80
2022/09/20 11:38:36;;;;;;;1.55;1.00;;;16.70;91.50;;;;;;5036544;28;20056;-79
2022/09/20 11:41:10;;;;;;;2.17;1.02;;;16.60;92.20;;;;;;5034944;28;20053;-80
2022/09/20 11:43:41;;;;;;;5.07;2.22;;;16.50;92.40;;;;;;5035141;28;20649;-79
2022/09/20 11:46:11;;;;;;;2.78;1.20;;;16.50;92.60;;;;;;5035643;28;20531;-80
2022/09/20 11:48:47;;;;;;;9.55;1.90;;;16.60;92.70;;;;;;5035214;28;20044;-80
2022/09/20 11:51:19;;;;;;;1.58;1.35;;;16.70;92.60;;;;;;5034440;28;20052;-80
2022/09/20 11:54:14;;;;;;;4.20;1.20;;;16.90;92.80;;;;;;5036587;28;20128;-82
2022/09/20 11:56:40;;;;;;;4.47;1.25;;;17.00;92.00;;;;;;5032737;28;20493;-78
2022/09/20 11:59:28;;;;;;;3.67;1.40;;;17.00;91.20;;;;;;5035315;28;20037;-80
2022/09/20 12:01:58;;;;;;;5.05;1.23;;;17.10;90.40;;;;;;5033656;28;20833;-80
2022/09/20 12:04:28;;;;;;;4.22;1.25;;;17.10;91.10;;;;;;5031819;28;20106;-78
2022/09/20 12:07:04;;;;;;;3.00;1.20;;;17.20;91.30;;;;;;5031977;28;20049;-79
2022/09/20 12:09:39;;;;;;;4.05;1.50;;;16.70;89.30;;;;;;5033068;28;20056;-80
2022/09/20 12:12:14;;;;;;;2.80;0.98;;;17.20;90.00;;;;;;5032413;28;20049;-79
2022/09/20 12:14:41;;;;;;;4.82;1.10;;;16.90;84.60;;;;;;5033469;28;20059;-77
2022/09/20 12:17:44;;;;;;;7.00;1.13;;;17.00;90.00;;;;;;5034645;28;20048;-77
2022/09/20 12:20:31;;;;;;;3.53;1.20;;;17.20;87.70;;;;;;5031290;28;20475;-82
2022/09/20 12:23:34;;;;;;;5.78;1.00;;;17.30;88.60;;;;;;5034605;28;20092;-75
2022/09/20 12:26:04;;;;;;;4.15;1.13;;;17.30;89.40;;;;;;5032522;28;20121;-77
2022/09/20 12:28:51;;;;;;;1.95;1.45;;;17.40;90.80;;;;;;5034666;28;20055;-77
2022/09/20 12:31:24;;;;;;;2.00;1.15;;;17.40;91.30;;;;;;5034073;28;20122;-78
2022/09/20 12:34:08;;;;;;;5.80;1.35;;;17.10;91.20;;;;;;5030204;28;20060;-78
2022/09/20 12:36:37;;;;;;;3.50;1.10;;;16.90;91.60;;;;;;5033483;28;20056;-79
2022/09/20 12:39:16;;;;;;;5.18;1.45;;;16.70;92.00;;;;;;5032727;28;20507;-79
2022/09/20 12:41:59;;;;;;;2.30;1.02;;;16.60;93.40;;;;;;5032994;28;20037;-79
2022/09/20 12:44:31;;;;;;;5.07;1.40;;;16.50;93.30;;;;;;5031993;28;20203;-80
2022/09/20 12:47:03;;;;;;;2.17;1.08;;;16.50;92.90;;;;;;5031100;28;20149;-78
2022/09/20 12:52:49;;;;;;;1.63;0.80;;;17.00;91.40;;;;;;5031785;28;20053;-78
2022/09/20 12:55:33;;;;;;;1.58;1.23;;;17.10;90.30;;;;;;5034399;28;20603;-79
2022/09/20 12:58:14;;;;;;;2.03;0.95;;;17.10;88.80;;;;;;5026926;28;20052;-79
2022/09/20 13:00:45;;;;;;;4.75;1.00;;;17.10;90.20;;;;;;5031545;28;20166;-80
2022/09/20 13:03:15;;;;;;;5.93;0.85;;;17.10;90.30;;;;;;5031848;28;20056;-78
2022/09/20 13:05:44;;;;;;;3.95;0.90;;;17.20;90.90;;;;;;5034246;28;20056;-78
2022/09/20 13:08:27;;;;;;;1.58;0.63;;;17.30;90.80;;;;;;5037037;28;20094;-78
2022/09/20 13:11:17;;;;;;;3.67;1.23;;;17.20;90.50;;;;;;5036118;28;20061;-80
2022/09/20 13:13:48;;;;;;;4.18;1.00;;;17.10;91.40;;;;;;5035360;28;20048;-79
2022/09/20 13:16:29;;;;;;;4.07;1.00;;;17.00;91.40;;;;;;5034099;28;20519;-80
2022/09/20 13:19:28;;;;;;;4.28;0.98;;;16.90;90.90;;;;;;5036513;28;20041;-78
2022/09/20 13:21:59;;;;;;;2.88;1.20;;;16.80;91.00;;;;;;5037043;28;20060;-77
2022/09/20 13:24:29;;;;;;;2.90;0.90;;;16.80;90.80;;;;;;5036987;28;20124;-77
2022/09/20 13:27:01;;;;;;;2.78;1.02;;;16.70;90.90;;;;;;5036163;28;21038;-80
2022/09/20 13:29:39;;;;;;;1.45;0.70;;;16.80;91.30;;;;;;5036443;28;20049;-79
2022/09/20 13:32:25;;;;;;;7.25;1.17;;;17.00;90.80;;;;;;5035045;28;20394;-80
2022/09/20 13:35:09;;;;;;;2.22;0.77;;;16.90;91.10;;;;;;5037543;28;20056;-78
2022/09/20 13:37:45;;;;;;;1.17;0.60;;;16.70;91.40;;;;;;5037606;28;20044;-78
2022/09/20 13:40:23;;;;;;;5.88;0.90;;;16.30;91.80;;;;;;5037231;28;20036;-78
2022/09/20 13:42:52;;;;;;;2.90;0.82;;;16.20;92.70;;;;;;5037189;28;20128;-78
2022/09/20 13:45:20;;;;;;;4.93;1.17;;;16.10;92.60;;;;;;5035976;28;20052;-78
2022/09/20 13:47:51;;;;;;;3.00;1.45;;;16.00;93.00;;;;;;5037845;28;20056;-77
2022/09/20 13:50:22;;;;;;;2.47;1.27;;;16.10;92.60;;;;;;5036584;28;20041;-77
2022/09/20 13:52:51;;;;;;;3.72;1.10;;;16.20;92.90;;;;;;5037048;28;20098;-76
2022/09/20 13:55:35;;;;;;;4.05;1.30;;;16.30;92.60;;;;;;5037497;28;20048;-77
2022/09/20 13:58:07;;;;;;;3.90;1.30;;;16.40;93.20;;;;;;5036134;28;20052;-76
2022/09/20 14:00:36;;;;;;;3.03;0.90;;;16.70;92.90;;;;;;5035776;28;20432;-78
2022/09/20 14:03:03;;;;;;;2.92;1.00;;;16.90;93.30;;;;;;5038383;28;20133;-80